Tiempo atmosférico en la estación meteorológica de Luzaide/Valcarlos, Navarra (334 m.)



Fecha
DESCASC
Temp. máxima en grados centígrados (hora)
DESCASC
Temp. mínima en grados centígrados (hora)
DESCASC
Temp. media en grados centígrados
DESCASC
Racha de viento máxima en m/sg (hora)
DESCASC
Velocidad máxima media en intervalos de 10 minutos(hora)
DESCASC
Precipitaciones diarias en mm
DESCASC
Precipitaciones de 00:00 a 06:00 en mm
DESCASC
Precipitaciones de 06:00 a 12:00 en mm
DESCASC
Precipitaciones de 12:00 a 18:00 en mm
DESCASC
Precipitaciones de 18:00 a 24:00 en mm
DESCASC
02-04-2020 15 (16:10) 4.8 (23:50) 9.9 10 (17:10) 5.56 (17:10) 0 0 0 0 0
01-04-2020 13.4 (13:30) 5.5 (00:00) 9.4 6.94 (12:40) 4.72 (12:40) 4.8 0 0 3.6 1.2
31-03-2020 7.3 (17:20) 0.5 (00:00) 3.9 4.17 (15:20) 3.06 (15:20) 8.6 1.2 5.6 0.8 1
30-03-2020 5.5 (11:40) 0.1 (00:00) 2.8 8.06 (02:50) 4.17 (00:40) 1.4 1.4 0 0 0
29-03-2020 12.8 (15:00) 2.4 (00:00) 7.6 11.39 (22:30) 6.67 (22:30) 0.6 0 0 0 0.6
28-03-2020 15.7 (15:20) 3.3 (00:00) 9.5 6.67 (16:40) 3.89 (10:50) 0 0 0 0 0
27-03-2020 12.5 (15:20) 0.6 (00:00) 6.6 7.22 (15:00) 3.89 (13:40) 0 0 0 0 0
26-03-2020 11.2 (13:30) 3.6 (00:00) 7.4 10 (11:20) 5.83 (11:20) 0 0 0 0 0
25-03-2020 17.7 (15:20) 4.7 (00:00) 11.2 8.06 (09:20) 4.72 (09:40) 0 0 0 0 0
24-03-2020 17.7 (14:20) 7.6 (00:00) 12.7 7.78 (15:20) 4.44 (13:20) 0.2 0.2 0 0 0
23-03-2020 14.7 (13:40) 9 (00:00) 11.8 7.22 (14:10) 3.89 (13:50) 0.2 0 0 0 0.2
22-03-2020 16.2 (12:40) 8.5 (07:40) 12.4 7.78 (15:10) 5 (10:40) 0 0 0 0 0
21-03-2020 20.3 (15:30) 8.5 (00:00) 14.4 11.39 (11:50) 4.72 (05:00) 0 0 0 0 0
20-03-2020 20.7 (14:30) 8.9 (00:00) 14.8 10 (07:20) 4.72 (07:40) 0 0 0 0 0
19-03-2020 22.2 (14:00) 10 (00:00) 16.1 10.28 (10:00) 5 (10:00) 0 0 0 0 0
18-03-2020 18.3 (12:30) 7 (00:00) 12.6 5.83 (14:20) 3.89 (13:40) 0.2 0 0 0 0.2
17-03-2020 11.9 (17:30) 8.5 (00:00) 10.2 3.33 (09:40) 2.22 (15:00) 0.2 0.2 0 0 0
16-03-2020 8.8 (14:30) 7 (00:00) 7.9 4.17 (15:00) 2.78 (15:50) 19.6 7.4 8.4 1.6 2.2
15-03-2020 23.2 (15:30) 2.5 (00:00) 12.9 13.61 (15:50) 8.61 (16:00) 28.2 0 0 0.4 27.8
14-03-2020 12.3 (14:50) 4.4 (00:00) 8.4 5.83 (13:30) 4.17 (14:00) 0 0 0 0 0
13-03-2020 8.7 (00:00) 6.8 (23:50) 7.8 6.67 (03:00) 3.61 (03:00) 6 3.8 2 0.2 0
12-03-2020 12 (13:00) 8.7 (00:00) 10.3 6.67 (23:00) 3.89 (23:00) 7.4 0 0.2 0.6 6.6
11-03-2020 18.3 (16:00) 4.4 (00:00) 11.3 7.22 (13:40) 5.28 (13:30) 0 0 0 0 0
10-03-2020 16.2 (14:50) 4.6 (00:00) 10.4 7.22 (13:50) 5 (14:10) 0 0 0 0 0
09-03-2020 10.4 (14:40) 6.3 (00:00) 8.3 10.28 (13:50) 4.44 (14:30) 21.6 10.8 9.2 1.4 0.2
08-03-2020 16.7 (13:30) 3.2 (00:00) 10 7.22 (19:10) 4.17 (17:40) 1.2 0 0 0 1.2
07-03-2020 8.7 (16:40) 4.4 (00:00) 6.5 6.39 (00:40) 3.61 (09:40) 18 8.8 5.4 2.6 1.2
06-03-2020 8 (05:20) 3 (00:00) 5.5 16.67 (17:30) 5.56 (19:10) 43.6 0.4 17.4 11.4 14.4
05-03-2020 15.6 (05:10) 6.2 (00:00) 10.9 18.33 (16:40) 6.94 (08:00) 29.6 0.2 14.2 6.2 9

Gráficas

Temp. máximas Temp. mínimas Temp. medias Precipitaciones Rachas de viento máximas Velocidades máximas media en intervalos de 10 minutos

Datos horarios

Fecha y hora oficial Temperatura (ºC) Velocidad del viento (km/h) Dirección del viento Racha (km/h) Dirección de racha Precipitación (mm) Presión (hPa) Tendencia (hPa) Humedad (%)
2020-04-03 23:00:00 5.7 2 Sur 4 Sur 0 -- -- 83
2020-04-03 22:00:00 7 4 Sur 6 Sur 0 -- -- 78
2020-04-03 21:00:00 9.1 0 Calma 9 Noroeste 0 -- -- 69
2020-04-03 20:00:00 11.2 4 Noroeste 17 Noroeste 0 -- -- 58
2020-04-03 19:00:00 12.2 13 Norte 27 Norte 0 -- -- 53
2020-04-03 18:00:00 12.5 11 Norte 27 Norte 0 -- -- 52
2020-04-03 17:00:00 12.9 12 Norte 24 Norte 0 -- -- 53
2020-04-03 16:00:00 13.3 9 Norte 22 Nordeste 0 -- -- 52
2020-04-03 15:00:00 12.8 11 Norte 25 Norte 0 -- -- 52
2020-04-03 14:00:00 12.3 10 Norte 24 Norte 0 -- -- 54
2020-04-03 13:00:00 10.9 9 Norte 22 Norte 0 -- -- 58
2020-04-03 12:00:00 10.8 11 Norte 21 Norte 0 -- -- 59
2020-04-03 11:00:00 10.1 10 Norte 18 Norte 0 -- -- 63
2020-04-03 10:00:00 7.7 2 Sudeste 5 Sudeste 0 -- -- 91
2020-04-03 09:00:00 5.1 2 Sur 3 Sur 0 -- -- 93
2020-04-03 08:00:00 5.1 0 Calma 3 Sur 0 -- -- 91
2020-04-03 07:00:00 5.2 0 Calma 3 Oeste 0 -- -- 91
2020-04-03 06:00:00 4.7 0 Calma 4 Sur 0 -- -- 92
2020-04-03 05:00:00 4.2 2 Sur 6 Sur 0 -- -- 93
2020-04-03 04:00:00 3.5 0 Calma 4 Sudoeste 0 -- -- 92
2020-04-03 03:00:00 3.1 0 Calma 4 Sur 0 -- -- 90
2020-04-03 02:00:00 3.7 3 Sur 8 Sur 0 -- -- 86
2020-04-03 01:00:00 4 4 Sudoeste 8 Sur 0 -- -- 84
2020-04-03 00:00:00 4.8 0 Calma 10 Sur 0 -- -- 78
2020-04-02 23:00:00 5.6 4 Sur 9 Sur 0 -- -- 76
2020-04-02 22:00:00 8 2 Oeste 19 Norte 0 -- -- 59
2020-04-02 21:00:00 9.4 8 Norte 20 Norte 0 -- -- 61
2020-04-02 20:00:00 11 11 Norte 23 Noroeste 0 -- -- 64
2020-04-02 19:00:00 13.1 9 Norte 26 Norte 0 -- -- 58
2020-04-02 18:00:00 13.8 11 Norte 36 Noroeste 0 -- -- 56
2020-04-02 17:00:00 14.7 14 Norte 28 Norte 0 -- -- 55
2020-04-02 16:00:00 14.8 11 Norte 31 Norte 0 -- -- 61
2020-04-02 15:00:00 14.1 15 Norte 27 Norte 0 -- -- 56
2020-04-02 14:00:00 14 14 Norte 27 Norte 0 -- -- 65
2020-04-02 13:00:00 13 14 Norte 26 Norte 0 -- -- 73
2020-04-02 12:00:00 12.7 9 Nordeste 23 Norte 0 -- -- 79
2020-04-02 11:00:00 11.7 9 Norte 19 Norte 0 -- -- 88
2020-04-02 10:00:00 9.1 7 Norte 11 Norte 0 -- -- 99
2020-04-02 09:00:00 8.1 0 Calma 3 Sur 0 -- -- 99
2020-04-02 08:00:00 7.4 0 Calma 2 Sur 0 -- -- 99
2020-04-02 07:00:00 7.4 0 Calma 3 Sudeste 0 -- -- 99
2020-04-02 06:00:00 7.7 0 Calma 5 Sur 0 -- -- 99
2020-04-02 05:00:00 8.2 0 Calma 3 Sur 0 -- -- 98
2020-04-02 04:00:00 8.2 0 Calma 5 Sur 0 -- -- 99
2020-04-02 03:00:00 8.2 0 Calma 10 Norte 0 -- -- 98
2020-04-02 02:00:00 8.8 0 Calma 3 Sur 0 -- -- 97
2020-04-02 01:00:00 9 2 Sudoeste 4 Sur 0 -- -- 98
2020-04-02 00:00:00 9.1 0 Calma 3 Sudeste 0.2 -- -- 97
2020-04-01 23:00:00 9.2 0 Calma 4 Sur 0.4 -- -- 97
2020-04-01 22:00:00 9.4 2 Sur 4 Sur 0.2 -- -- 96
2020-04-01 21:00:00 9.7 0 Calma 7 Sur 0 -- -- 95
2020-04-01 20:00:00 10.1 3 Sur 6 Sur 0.4 -- -- 95
2020-04-01 19:00:00 10.9 3 Sur 5 Sur 0 -- -- 93
2020-04-01 18:00:00 11.7 0 Calma 4 Sur 0.2 -- -- 94
2020-04-01 17:00:00 11.9 0 Calma 3 Sudeste 1.2 -- -- 92
2020-04-01 16:00:00 11.7 3 Sur 7 Sur 1.4 -- -- 89
2020-04-01 15:00:00 11.9 3 Sudeste 15 Norte 0.8 -- -- 90
2020-04-01 14:00:00 13 9 Norte 20 Norte 0 -- -- 71
2020-04-01 13:00:00 13 15 Norte 25 Norte 0 -- -- 70
2020-04-01 12:00:00 12.9 11 Norte 18 Norte 0 -- -- 73
2020-04-01 11:00:00 10.4 6 Norte 12 Norte 0 -- -- 84
2020-04-01 10:00:00 8.9 3 Noroeste 8 Norte 0 -- -- 98
2020-04-01 09:00:00 6.4 0 Calma 6 Sur 0 -- -- 100
2020-04-01 08:00:00 5.7 2 Oeste 7 Sudoeste 0 -- -- 99
2020-04-01 07:00:00 6 0 Calma 5 Norte 0 -- -- 99
2020-04-01 06:00:00 6.3 2 Noroeste 6 Sur 0 -- -- 98
2020-04-01 05:00:00 6.3 0 Calma 9 Noroeste 0 -- -- 99
2020-04-01 04:00:00 6.2 2 Sur 7 Oeste 0 -- -- 98
2020-04-01 03:00:00 6.1 0 Calma 7 Sur 0 -- -- 98
2020-04-01 02:00:00 5.9 3 Sur 6 Sudoeste 0 -- -- 98
2020-04-01 01:00:00 5.8 3 Norte 6 Noroeste 0 -- -- 98
2020-04-01 00:00:00 5.5 0 Calma 5 Sudeste 0 -- -- 97
2020-03-31 23:00:00 5.5 0 Calma 4 Sur 0 -- -- 96
2020-03-31 22:00:00 5.9 0 Calma 4 Sur 0 -- -- 95
2020-03-31 21:00:00 6.4 0 Calma 3 Sur 0 -- -- 95
2020-03-31 20:00:00 6.8 0 Calma 3 Sur 0.2 -- -- 93
2020-03-31 19:00:00 6.8 0 Calma 3 Norte 0.8 -- -- 92
2020-03-31 18:00:00 7.3 0 Calma 4 Sudeste 0.2 -- -- 89
2020-03-31 17:00:00 7.2 0 Calma 6 Sur 0.2 -- -- 86
2020-03-31 16:00:00 6.5 2 Este 15 Norte 0.4 -- -- 89
2020-03-31 15:00:00 6.9 4 Norte 8 Nordeste 0 -- -- 81
2020-03-31 14:00:00 6.7 2 Este 8 Norte 0 -- -- 79
2020-03-31 13:00:00 5.6 4 Norte 5 Norte 0 -- -- 85
2020-03-31 12:00:00 4.1 0 Calma 4 Este 0.6 -- -- 96
2020-03-31 11:00:00 2.4 0 Calma 4 Noroeste 0.8 -- -- 97
2020-03-31 10:00:00 1.4 0 Calma 3 Sudoeste 0.6 -- -- 97
2020-03-31 09:00:00 0.6 0 Calma 2 Sudeste 1 -- -- 96
2020-03-31 08:00:00 0.6 0 Calma 2 Sur 1 -- -- 95
2020-03-31 07:00:00 1 0 Calma 2 Sudeste 1.6 -- -- 94
2020-03-31 06:00:00 1.7 0 Calma 3 Sudeste 1 -- -- 94
2020-03-31 05:00:00 2.3 0 Calma 3 Sur 0.2 -- -- 94
2020-03-31 04:00:00 2.4 0 Calma 2 Norte 0 -- -- 94
2020-03-31 03:00:00 2.4 0 Calma 2 Sur 0 -- -- 92
2020-03-31 02:00:00 2.2 0 Calma 0 Calma 0 -- -- 92
2020-03-31 01:00:00 2.1 0 Calma 3 Sur 0 -- -- 91
2020-03-31 00:00:00 2 0 Calma 3 Sudoeste 0 -- -- 91
2020-03-30 23:00:00 1.8 0 Calma 4 Sur 0 -- -- 90
2020-03-30 22:00:00 1.8 0 Calma 6 Sur 0 -- -- 86
2020-03-30 21:00:00 2.8 2 Sur 8 Norte 0 -- -- 82
2020-03-30 20:00:00 3.7 5 Norte 14 Norte 0 -- -- 77
2020-03-30 19:00:00 4.5 7 Norte 16 Norte 0 -- -- 69
2020-03-30 18:00:00 4.6 9 Norte 17 Norte 0 -- -- 70
2020-03-30 17:00:00 5.2 7 Norte 17 Norte 0 -- -- 67
2020-03-30 16:00:00 4.7 9 Norte 15 Norte 0 -- -- 65
2020-03-30 15:00:00 5 8 Norte 22 Noroeste 0 -- -- 66
2020-03-30 14:00:00 4.7 8 Nordeste 22 Norte 0 -- -- 65
2020-03-30 13:00:00 4.1 10 Norte 21 Norte 0 -- -- 69
2020-03-30 12:00:00 5 6 Nordeste 14 Norte 0 -- -- 72
2020-03-30 11:00:00 4 8 Este 18 Noroeste 0 -- -- 77
2020-03-30 10:00:00 1.7 10 Norte 15 Nordeste 0 -- -- 87
2020-03-30 09:00:00 0.5 0 Calma 3 Norte 0 -- -- 98
2020-03-30 08:00:00 0.2 2 Norte 4 Sudoeste 0 -- -- 96
2020-03-30 07:00:00 1 3 Norte 12 Norte 0 -- -- 95
2020-03-30 06:00:00 1.8 8 Norte 12 Noroeste 0 -- -- 94
2020-03-30 05:00:00 1.9 3 Noroeste 18 Norte 0 -- -- 94
2020-03-30 04:00:00 1.8 8 Norte 24 Norte 0 -- -- 94
2020-03-30 03:00:00 1.9 14 Norte 29 Noroeste 0.4 -- -- 94
2020-03-30 02:00:00 2.1 12 Norte 19 Nordeste 0.6 -- -- 96
2020-03-30 01:00:00 2.4 9 Norte 23 Norte 0.4 -- -- 95
2020-03-30 00:00:00 3.6 12 Norte 23 Norte 0.6 -- -- 92
2020-03-29 23:00:00 5.4 11 Norte 41 Norte 0 -- -- 83
2020-03-29 22:00:00 8.7 14 Norte 24 Norte 0 -- -- 80
2020-03-29 21:00:00 9.1 7 Norte 12 Nordeste 0 -- -- 79
2020-03-29 20:00:00 9.4 5 Norte 22 Nordeste 0 -- -- 78
2020-03-29 19:00:00 10.4 15 Norte 24 Noroeste 0 -- -- 73
2020-03-29 18:00:00 11.3 10 Norte 19 Norte 0 -- -- 69
2020-03-29 17:00:00 11.7 9 Norte 20 Noroeste 0 -- -- 67
2020-03-29 16:00:00 11.5 12 Norte 26 Nordeste 0 -- -- 67
2020-03-29 15:00:00 12.8 13 Norte 23 Norte 0 -- -- 63
2020-03-29 14:00:00 11.6 11 Norte 22 Norte 0 -- -- 66
2020-03-29 13:00:00 11.4 12 Norte 23 Norte 0 -- -- 67
2020-03-29 12:00:00 10.8 10 Norte 19 Norte 0 -- -- 66
2020-03-29 11:00:00 8.9 5 Norte 8 Norte 0 -- -- 71
2020-03-29 10:00:00 6.6 3 Sur 8 Sur 0 -- -- 80
2020-03-29 09:00:00 2.8 3 Sudeste 5 Sudeste 0 -- -- 89
2020-03-29 08:00:00 2.5 2 Sur 4 Sudoeste 0 -- -- 88
2020-03-29 07:00:00 2.8 0 Calma 8 Sur 0 -- -- 87
2020-03-29 06:00:00 3.2 3 Sur 9 Sudoeste 0 -- -- 87
2020-03-29 05:00:00 3.3 2 Sur 8 Sur 0 -- -- 87
2020-03-29 03:00:00 4 0 Calma 8 Sudeste 0 -- -- 87
2020-03-29 01:00:00 4.4 0 Calma 5 Sur 0 -- -- 86
2020-03-29 00:00:00 5 2 Sur 5 Sur 0 -- -- 85
2020-03-28 23:00:00 5.7 0 Calma 4 Sudoeste 0 -- -- 81
2020-03-28 22:00:00 6.9 0 Calma 4 Sudoeste 0 -- -- 78
2020-03-28 21:00:00 8.4 3 Sur 5 Sur 0 -- -- 73
2020-03-28 20:00:00 10.4 0 Calma 10 Noroeste 0 -- -- 66
2020-03-28 19:00:00 12.5 8 Norte 20 Noroeste 0 -- -- 56
2020-03-28 18:00:00 13.7 13 Norte 19 Nordeste 0 -- -- 55
2020-03-28 17:00:00 14.5 12 Norte 24 Nordeste 0 -- -- 52
2020-03-28 16:00:00 15.2 12 Norte 24 Norte 0 -- -- 49
2020-03-28 15:00:00 15.5 11 Norte 24 Norte 0 -- -- 48
2020-03-28 14:00:00 15.3 10 Norte 22 Norte 0 -- -- 46
2020-03-28 13:00:00 15 10 Nordeste 19 Norte 0 -- -- 46
2020-03-28 12:00:00 14.3 11 Norte 20 Norte 0 -- -- 49
2020-03-28 11:00:00 13.2 13 Norte 18 Norte 0 -- -- 49
2020-03-28 10:00:00 11.7 5 Norte 9 Norte 0 -- -- 55
2020-03-28 09:00:00 8.1 0 Calma 4 Sur 0 -- -- 79
2020-03-28 08:00:00 4.1 0 Calma 5 Sudoeste 0 -- -- 88
2020-03-28 07:00:00 3.3 0 Calma 5 Sudoeste 0 -- -- 87
2020-03-28 06:00:00 3.5 0 Calma 5 Sur 0 -- -- 85
2020-03-28 05:00:00 3.6 2 Sur 6 Sur 0 -- -- 85
2020-03-28 04:00:00 3.7 3 Sur 6 Sudeste 0 -- -- 87
2020-03-28 03:00:00 3.9 3 Sur 5 Sudeste 0 -- -- 86
2020-03-28 02:00:00 4.2 2 Sur 6 Sur 0 -- -- 85
2020-03-28 01:00:00 4.5 3 Sur 8 Sudoeste 0 -- -- 84
2020-03-28 00:00:00 4.8 3 Sur 6 Sur 0 -- -- 83
2020-03-27 23:00:00 5.4 2 Sur 5 Sur 0 -- -- 80
2020-03-27 22:00:00 6.1 0 Calma 5 Sur 0 -- -- 76
2020-03-27 21:00:00 7.1 0 Calma 5 Sudoeste 0 -- -- 70
2020-03-27 20:00:00 8.8 3 Sur 9 Norte 0 -- -- 62
2020-03-27 19:00:00 11 8 Noroeste 22 Norte 0 -- -- 48
2020-03-27 18:00:00 11.5 10 Norte 24 Norte 0 -- -- 49
2020-03-27 17:00:00 11.8 12 Norte 26 Noroeste 0 -- -- 47
2020-03-27 16:00:00 12.2 13 Norte 25 Norte 0 -- -- 47
2020-03-27 15:00:00 12.1 12 Norte 26 Norte 0 -- -- 49
2020-03-27 14:00:00 12 10 Norte 24 Norte 0 -- -- 47
2020-03-27 13:00:00 11.8 10 Norte 23 Norte 0 -- -- 48
2020-03-27 12:00:00 10.9 10 Norte 21 Nordeste 0 -- -- 54
2020-03-27 11:00:00 9.5 12 Norte 18 Nordeste 0 -- -- 52
2020-03-27 10:00:00 7.8 8 Norte 12 Norte 0 -- -- 66
2020-03-27 09:00:00 5.3 3 Sudeste 6 Sudeste 0 -- -- 79
2020-03-27 08:00:00 1.4 2 Sudeste 8 Sudeste 0 -- -- 85
2020-03-27 07:00:00 0.7 0 Calma 8 Sudeste 0 -- -- 85
2020-03-27 06:00:00 0.8 3 Sur 6 Sur 0 -- -- 85
2020-03-27 05:00:00 1.1 0 Calma 5 Sur 0 -- -- 84
2020-03-27 04:00:00 1.6 4 Sur 8 Sudoeste 0 -- -- 83
2020-03-27 03:00:00 1.8 0 Calma 9 Sur 0 -- -- 84
2020-03-27 02:00:00 2.2 2 Sur 6 Sur 0 -- -- 84
2020-03-27 01:00:00 2.8 3 Sur 6 Sur 0 -- -- 80
2020-03-27 00:00:00 3.6 2 Sur 4 Sudoeste 0 -- -- 79
2020-03-26 23:00:00 4.1 3 Sur 5 Sudoeste 0 -- -- 77
2020-03-26 22:00:00 3.8 3 Sur 4 Sudeste 0 -- -- 76
2020-03-26 21:00:00 4.2 3 Sur 6 Sur 0 -- -- 72
2020-03-26 20:00:00 5.9 5 Sur 17 Norte 0 -- -- 64
2020-03-26 19:00:00 7.2 9 Norte 19 Norte 0 -- -- 52
2020-03-26 18:00:00 8.2 10 Norte 29 Norte 0 -- -- 50
2020-03-26 17:00:00 9.6 9 Norte 29 Norte 0 -- -- 46
2020-03-26 16:00:00 10.3 11 Norte 27 Noroeste 0 -- -- 42
2020-03-26 15:00:00 9.9 14 Norte 33 Norte 0 -- -- 42
2020-03-26 14:00:00 10.6 12 Norte 31 Norte 0 -- -- 39
2020-03-26 13:00:00 10.8 10 Noroeste 25 Norte 0 -- -- 40
2020-03-26 12:00:00 9.3 12 Norte 36 Norte 0 -- -- 43
2020-03-26 11:00:00 9.3 16 Norte 33 Norte 0 -- -- 48
2020-03-26 10:00:00 8.1 13 Norte 29 Norte 0 -- -- 48
2020-03-26 09:00:00 7.2 13 Norte 24 Norte 0 -- -- 69
2020-03-26 08:00:00 7.5 9 Norte 20 Nordeste 0 -- -- 64
2020-03-26 07:00:00 7.6 10 Norte 19 Norte 0 -- -- 68
2020-03-26 06:00:00 7.9 9 Norte 18 Norte 0 -- -- 65
2020-03-26 05:00:00 8.6 4 Norte 19 Noroeste 0 -- -- 67
2020-03-26 04:00:00 7.8 3 Norte 12 Sudoeste 0 -- -- 81
2020-03-26 03:00:00 7.6 5 Sur 14 Sur 0 -- -- 81
2020-03-26 02:00:00 6.1 5 Sudoeste 11 Sur 0 -- -- 79
2020-03-26 01:00:00 5.1 7 Sur 13 Sur 0 -- -- 76
2020-03-26 00:00:00 4.7 6 Sur 14 Sur 0 -- -- 76
2020-03-25 23:00:00 5.2 5 Sur 12 Sudoeste 0 -- -- 76
2020-03-25 22:00:00 7.1 4 Sur 21 Sudoeste 0 -- -- 69
2020-03-25 21:00:00 8.1 10 Sudoeste 27 Oeste 0 -- -- 67
2020-03-25 20:00:00 10.1 4 Noroeste 20 Oeste 0 -- -- 52
2020-03-25 19:00:00 11.4 5 Sudeste 23 Sudoeste 0 -- -- 48
2020-03-25 18:00:00 12.8 8 Sudoeste 21 Sur 0 -- -- 44
2020-03-25 17:00:00 14 6 Noroeste 26 Norte 0 -- -- 53
2020-03-25 16:00:00 16.6 9 Oeste 26 Sudoeste 0 -- -- 37
2020-03-25 15:00:00 16.7 7 Sudoeste 23 Oeste 0 -- -- 42
2020-03-25 14:00:00 16.1 4 Sudeste 19 Sudoeste 0 -- -- 47
2020-03-25 13:00:00 15.5 8 Sur 20 Sudoeste 0 -- -- 54
2020-03-25 12:00:00 15.8 8 Sudeste 21 Sur 0 -- -- 57
2020-03-25 11:00:00 12.6 10 Sur 27 Sur 0 -- -- 63
2020-03-25 10:00:00 11.5 16 Sur 29 Sur 0 -- -- 67
2020-03-25 09:00:00 11.1 15 Sur 28 Sur 0 -- -- 70
2020-03-25 08:00:00 9.1 11 Sur 23 Sudeste 0 -- -- 76
2020-03-25 07:00:00 8.6 8 Sur 18 Sudoeste 0 -- -- 77
2020-03-25 06:00:00 8.9 9 Sur 24 Sur 0 -- -- 77
2020-03-25 05:00:00 6.3 0 Calma 7 Sudeste 0 -- -- 82
2020-03-25 04:00:00 6.8 3 Sur 6 Sur 0 -- -- 82
2020-03-25 03:00:00 6.9 3 Sur 5 Sur 0 -- -- 83
2020-03-25 02:00:00 6.7 3 Sur 7 Sudoeste 0 -- -- 83
2020-03-25 01:00:00 7 2 Sur 6 Sur 0 -- -- 83
2020-03-25 00:00:00 7.7 3 Sur 8 Sudoeste 0 -- -- 80
2020-03-24 23:00:00 8.6 4 Sur 7 Sur 0 -- -- 76
2020-03-24 22:00:00 9.2 2 Sur 6 Sur 0 -- -- 75
2020-03-24 21:00:00 10.7 2 Sur 6 Sur 0 -- -- 70
2020-03-24 20:00:00 12.8 4 Sur 7 Norte 0 -- -- 64
2020-03-24 19:00:00 15.1 8 Noroeste 20 Norte 0 -- -- 52
2020-03-24 18:00:00 16.2 14 Norte 26 Nordeste 0 -- -- 51
2020-03-24 17:00:00 16.7 10 Norte 24 Noroeste 0 -- -- 52
2020-03-24 16:00:00 16.7 13 Norte 28 Norte 0 -- -- 55
2020-03-24 15:00:00 17.6 11 Norte 26 Norte 0 -- -- 58
2020-03-24 14:00:00 17.1 11 Norte 23 Norte 0 -- -- 60
2020-03-24 13:00:00 17.5 12 Norte 22 Norte 0 -- -- 52
2020-03-24 12:00:00 16.4 11 Norte 18 Norte 0 -- -- 63
2020-03-24 11:00:00 12.8 3 Sur 4 Noroeste 0 -- -- 86
2020-03-24 10:00:00 12 0 Calma 4 Sudeste 0 -- -- 85
2020-03-24 09:00:00 10 2 Sur 4 Sur 0 -- -- 98
2020-03-24 08:00:00 7.8 0 Calma 5 Sur 0 -- -- 96
2020-03-24 07:00:00 7.8 2 Norte 5 Sur 0 -- -- 95
2020-03-24 06:00:00 8 2 Sur 6 Sur 0 -- -- 95
2020-03-24 05:00:00 8.2 0 Calma 4 Sur 0 -- -- 94
2020-03-24 04:00:00 8.8 0 Calma 8 Sudoeste 0 -- -- 95
2020-03-24 03:00:00 8.6 3 Sur 7 Sur 0 -- -- 96
2020-03-24 02:00:00 7.8 0 Calma 6 Sur 0.2 -- -- 96
2020-03-24 01:00:00 7.9 0 Calma 6 Sur 0 -- -- 95
2020-03-24 00:00:00 9 0 Calma 7 Sudoeste 0 -- -- 94
2020-03-23 23:00:00 10 0 Calma 5 Sudoeste 0 -- -- 94
2020-03-23 22:00:00 10.8 0 Calma 6 Sudoeste 0 -- -- 93
2020-03-23 21:00:00 11.1 4 Sudoeste 6 Sudoeste 0.2 -- -- 91
2020-03-23 20:00:00 11.5 3 Sur 6 Sudeste 0 -- -- 90
2020-03-23 19:00:00 12.6 3 Norte 10 Noroeste 0 -- -- 87
2020-03-23 18:00:00 13.2 4 Norte 20 Noroeste 0 -- -- 80
2020-03-23 17:00:00 13.6 8 Norte 18 Noroeste 0 -- -- 77
2020-03-23 16:00:00 13.5 10 Norte 21 Noroeste 0 -- -- 77
2020-03-23 15:00:00 14 8 Noroeste 26 Norte 0 -- -- 76
2020-03-23 14:00:00 14.7 12 Norte 21 Norte 0 -- -- 71
2020-03-23 13:00:00 13.6 11 Norte 14 Norte 0 -- -- 75
2020-03-23 12:00:00 12.2 5 Norte 12 Norte 0 -- -- 84
2020-03-23 11:00:00 11.1 6 Norte 10 Norte 0 -- -- 89
2020-03-23 10:00:00 10.9 3 Norte 6 Norte 0 -- -- 88
2020-03-23 09:00:00 10.5 0 Calma 2 Sur 0 -- -- 90
2020-03-23 08:00:00 9.7 0 Calma 3 Sur 0 -- -- 93
2020-03-23 07:00:00 9.6 2 Sur 4 Sur 0 -- -- 92
2020-03-23 06:00:00 9.5 0 Calma 3 Norte 0 -- -- 93
2020-03-23 05:00:00 9.2 0 Calma 6 Norte 0 -- -- 93
2020-03-23 04:00:00 9.2 0 Calma 3 Oeste 0 -- -- 92
2020-03-23 03:00:00 9.1 0 Calma 3 Sur 0 -- -- 92
2020-03-23 02:00:00 9.2 0 Calma 2 Sur 0 -- -- 92
2020-03-23 01:00:00 9.5 2 Sur 4 Sur 0 -- -- 90
2020-03-23 00:00:00 9.9 0 Calma 11 Norte 0 -- -- 88
2020-03-22 23:00:00 11 2 Oeste 7 Noroeste 0 -- -- 83
2020-03-22 22:00:00 11.5 4 Noroeste 11 Noroeste 0 -- -- 82
2020-03-22 21:00:00 11.8 0 Calma 4 Nordeste 0 -- -- 80
2020-03-22 20:00:00 12.5 3 Norte 9 Norte 0 -- -- 76
2020-03-22 19:00:00 13 4 Norte 13 Norte 0 -- -- 74
2020-03-22 18:00:00 13.3 9 Norte 22 Norte 0 -- -- 72
2020-03-22 17:00:00 14.1 12 Norte 22 Norte 0 -- -- 67
2020-03-22 16:00:00 15.1 12 Norte 28 Norte 0 -- -- 63
2020-03-22 15:00:00 15.5 13 Norte 26 Norte 0 -- -- 62
2020-03-22 14:00:00 16.1 15 Norte 26 Norte 0 -- -- 61
2020-03-22 13:00:00 15.5 17 Norte 26 Norte 0 -- -- 63
2020-03-22 12:00:00 15 15 Norte 23 Norte 0 -- -- 63
2020-03-22 11:00:00 14.1 17 Norte 26 Norte 0 -- -- 64
2020-03-22 10:00:00 14.6 3 Este 7 Sudoeste 0 -- -- 58
2020-03-22 09:00:00 10.1 0 Calma 7 Sur 0 -- -- 75
2020-03-22 08:00:00 8.7 2 Sur 5 Sur 0 -- -- 81
2020-03-22 07:00:00 9.8 0 Calma 4 Sur 0 -- -- 72
2020-03-22 06:00:00 10.7 4 Sur 12 Noroeste 0 -- -- 70
2020-03-22 05:00:00 11.8 4 Sudoeste 8 Sur 0 -- -- 57
2020-03-22 04:00:00 11.7 3 Sur 7 Sur 0 -- -- 59
2020-03-22 03:00:00 10.4 2 Sudoeste 6 Sudoeste 0 -- -- 64
2020-03-22 02:00:00 10.7 3 Sur 10 Sudoeste 0 -- -- 61
2020-03-22 01:00:00 10.6 5 Sudoeste 9 Sudoeste 0 -- -- 66
2020-03-22 00:00:00 10.8 5 Sudoeste 12 Sudoeste 0 -- -- 65
2020-03-21 23:00:00 12.8 3 Sudoeste 17 Sur 0 -- -- 55
2020-03-21 22:00:00 14 6 Sur 13 Sudeste 0 -- -- 54
2020-03-21 21:00:00 14.7 7 Sur 20 Sur 0 -- -- 53
2020-03-21 20:00:00 15.5 8 Sur 17 Sur 0 -- -- 52
2020-03-21 19:00:00 16.7 6 Sur 15 Sur 0 -- -- 50
2020-03-21 18:00:00 17.5 8 Norte 15 Noroeste 0 -- -- 54
2020-03-21 17:00:00 18.2 10 Norte 21 Norte 0 -- -- 48
2020-03-21 16:00:00 19.3 10 Norte 17 Norte 0 -- -- 43
2020-03-21 15:00:00 19.9 12 Sur 28 Sudeste 0 -- -- 42
2020-03-21 14:00:00 19.6 10 Sur 26 Sudoeste 0 -- -- 45
2020-03-21 13:00:00 19.6 13 Sur 34 Sur 0 -- -- 42
2020-03-21 12:00:00 18.2 12 Sur 41 Sur 0 -- -- 43
2020-03-21 11:00:00 16.7 14 Sur 37 Sur 0 -- -- 46
2020-03-21 10:00:00 14.7 10 Sur 28 Sur 0 -- -- 53
2020-03-21 09:00:00 13.1 12 Sudoeste 32 Sur 0 -- -- 58
2020-03-21 08:00:00 11.7 9 Sudoeste 24 Sur 0 -- -- 62
2020-03-21 07:00:00 11.1 10 Sudoeste 25 Sur 0 -- -- 65
2020-03-21 06:00:00 10.7 9 Sur 36 Sudoeste 0 -- -- 69
2020-03-21 05:00:00 10.9 17 Sudoeste 33 Sudoeste 0 -- -- 69
2020-03-21 04:00:00 9.5 4 Sur 16 Sudoeste 0 -- -- 73
2020-03-21 03:00:00 8.7 3 Norte 10 Sur 0 -- -- 77
2020-03-21 02:00:00 8.8 3 Norte 9 Sudoeste 0 -- -- 78
2020-03-21 01:00:00 9.1 2 Sur 6 Sur 0 -- -- 78
2020-03-21 00:00:00 10.2 3 Sudoeste 7 Sur 0 -- -- 72
2020-03-20 23:00:00 11.3 3 Norte 8 Sudoeste 0 -- -- 67
2020-03-20 22:00:00 12.8 4 Este 18 Sur 0 -- -- 62
2020-03-20 21:00:00 13.7 3 Sur 18 Sudoeste 0 -- -- 57
2020-03-20 20:00:00 14.7 6 Sur 31 Sur 0 -- -- 54
2020-03-20 19:00:00 16.1 12 Sur 27 Sur 0 -- -- 49
2020-03-20 18:00:00 17.1 13 Sudoeste 30 Sur 0 -- -- 49
2020-03-20 17:00:00 18.4 13 Sur 36 Sur 0 -- -- 46
2020-03-20 16:00:00 20.2 8 Sur 31 Sur 0 -- -- 43
2020-03-20 15:00:00 20.6 11 Sur 24 Sur 0 -- -- 42
2020-03-20 14:00:00 20.1 10 Sur 26 Sur 0 -- -- 41
2020-03-20 13:00:00 19.3 10 Sur 29 Sur 0 -- -- 43
2020-03-20 12:00:00 18.8 10 Sur 33 Sur 0 -- -- 44
2020-03-20 11:00:00 18.3 10 Sur 30 Sudoeste 0 -- -- 44
2020-03-20 10:00:00 16.6 15 Sur 31 Sur 0 -- -- 44
2020-03-20 09:00:00 15.3 11 Sudoeste 29 Sur 0 -- -- 49
2020-03-20 08:00:00 13.4 14 Sudoeste 36 Sudoeste 0 -- -- 51
2020-03-20 07:00:00 13.2 14 Sudoeste 33 Sur 0 -- -- 53
2020-03-20 06:00:00 13.4 15 Sudoeste 34 Sudoeste 0 -- -- 53
2020-03-20 05:00:00 13.6 14 Sudoeste 28 Sudoeste 0 -- -- 54
2020-03-20 04:00:00 13.7 9 Sudoeste 25 Sur 0 -- -- 57
2020-03-20 03:00:00 13.3 9 Sudoeste 23 Sudoeste 0 -- -- 56
2020-03-20 02:00:00 9.2 5 Sur 12 Sur 0 -- -- 80
2020-03-20 01:00:00 9.5 4 Oeste 8 Oeste 0 -- -- 76
2020-03-20 00:00:00 10 4 Sudoeste 9 Sur 0 -- -- 77
2020-03-19 23:00:00 10.8 4 Sur 7 Sudoeste 0 -- -- 77
2020-03-19 22:00:00 12.1 3 Sur 7 Sur 0 -- -- 77
2020-03-19 21:00:00 13.7 0 Calma 6 Sudeste 0 -- -- 73
2020-03-19 20:00:00 15.6 3 Sur 10 Sudoeste 0 -- -- 67
2020-03-19 19:00:00 17.5 3 Sudoeste 15 Sudoeste 0 -- -- 58
2020-03-19 18:00:00 18.6 10 Sudoeste 26 Sur 0 -- -- 55
2020-03-19 17:00:00 19.5 15 Sur 34 Sudoeste 0 -- -- 51
2020-03-19 16:00:00 20.8 11 Sur 29 Sudoeste 0 -- -- 49
2020-03-19 15:00:00 21.8 11 Sudoeste 21 Sur 0 -- -- 45
2020-03-19 14:00:00 22.2 8 Sur 27 Sudoeste 0 -- -- 45
2020-03-19 13:00:00 21.4 10 Sudoeste 27 Sudoeste 0 -- -- 41
2020-03-19 12:00:00 20.7 13 Sudoeste 32 Sudoeste 0 -- -- 45
2020-03-19 11:00:00 19.1 13 Sur 35 Sudoeste 0 -- -- 47
2020-03-19 10:00:00 17.1 18 Sur 37 Sur 0 -- -- 54
2020-03-19 09:00:00 15.7 16 Sur 30 Sudoeste 0 -- -- 56
2020-03-19 08:00:00 13.1 4 Sudoeste 10 Sur 0 -- -- 70
2020-03-19 07:00:00 13.7 4 Sudoeste 10 Sudoeste 0 -- -- 70
2020-03-19 06:00:00 14.6 3 Sudoeste 9 Sudoeste 0 -- -- 69
2020-03-19 05:00:00 14.5 4 Sudoeste 14 Sudoeste 0 -- -- 72
2020-03-19 04:00:00 14.1 4 Oeste 13 Sudeste 0 -- -- 74
2020-03-19 03:00:00 13.8 4 Oeste 17 Sudoeste 0 -- -- 74
2020-03-19 02:00:00 12.5 2 Sudoeste 8 Oeste 0 -- -- 82
2020-03-19 01:00:00 12.1 2 Sudoeste 7 Sur 0 -- -- 84
2020-03-19 00:00:00 11 3 Sur 6 Sur 0 -- -- 91
2020-03-18 23:00:00 11.4 4 Sur 6 Sur 0 -- -- 91
2020-03-18 22:00:00 11.4 3 Sur 4 Sur 0 -- -- 91
2020-03-18 21:00:00 12.1 3 Sudoeste 5 Sur 0 -- -- 88
2020-03-18 20:00:00 13.3 3 Sur 5 Sudoeste 0 -- -- 84
2020-03-18 19:00:00 15.1 3 Sur 10 Norte 0.2 -- -- 78
2020-03-18 18:00:00 16.5 9 Norte 17 Norte 0 -- -- 69
2020-03-18 17:00:00 17.3 12 Norte 18 Norte 0 -- -- 66
2020-03-18 16:00:00 17.7 10 Norte 20 Norte 0 -- -- 62
2020-03-18 15:00:00 17.7 12 Norte 21 Norte 0 -- -- 60
2020-03-18 14:00:00 17.5 14 Norte 21 Norte 0 -- -- 61
2020-03-18 13:00:00 16.8 12 Norte 17 Sur 0 -- -- 62
2020-03-18 12:00:00 17.6 7 Sudeste 20 Sudeste 0 -- -- 60
2020-03-18 11:00:00 14.4 5 Sur 14 Sudeste 0 -- -- 75
2020-03-18 10:00:00 11.1 2 Norte 8 Norte 0 -- -- 95
2020-03-18 09:00:00 9.8 0 Calma 6 Sur 0 -- -- 97
2020-03-18 08:00:00 8.3 3 Sur 7 Sudoeste 0 -- -- 99
2020-03-18 07:00:00 7.3 3 Sur 4 Sur 0 -- -- 99
2020-03-18 06:00:00 7.1 0 Calma 4 Sur 0 -- -- 99
2020-03-18 05:00:00 7.2 0 Calma 4 Sur 0 -- -- 99
2020-03-18 04:00:00 7.4 0 Calma 5 Sudoeste 0 -- -- 98
2020-03-18 03:00:00 7.4 0 Calma 3 Sudoeste 0 -- -- 98
2020-03-18 02:00:00 7.7 0 Calma 5 Sudeste 0 -- -- 97
2020-03-18 01:00:00 8.2 2 Sudoeste 6 Sur 0 -- -- 95
2020-03-18 00:00:00 9.1 2 Sur 5 Sudoeste 0 -- -- 93
2020-03-17 23:00:00 10.3 2 Sur 6 Sur 0 -- -- 93
2020-03-17 22:00:00 10.6 0 Calma 4 Sur 0 -- -- 95
2020-03-17 21:00:00 10.8 0 Calma 3 Sur 0 -- -- 94
2020-03-17 20:00:00 11.1 2 Sur 3 Sur 0 -- -- 92
2020-03-17 19:00:00 11.4 3 Norte 8 Norte 0 -- -- 89
2020-03-17 18:00:00 11.6 5 Norte 8 Norte 0 -- -- 85
2020-03-17 17:00:00 11.5 4 Norte 11 Norte 0 -- -- 87
2020-03-17 16:00:00 11.5 6 Norte 11 Norte 0 -- -- 87
2020-03-17 15:00:00 11.3 8 Norte 12 Norte 0 -- -- 86
2020-03-17 14:00:00 11.1 4 Norte 5 Norte 0 -- -- 93
2020-03-17 13:00:00 10.9 0 Calma 3 Sur 0 -- -- 96
2020-03-17 12:00:00 10.5 0 Calma 3 Sur 0 -- -- 98
2020-03-17 11:00:00 10 0 Calma 6 Noroeste 0 -- -- 100
2020-03-17 10:00:00 9.3 3 Noroeste 12 Norte 0 -- -- 100
2020-03-17 09:00:00 9.2 0 Calma 4 Sudoeste 0 -- -- 100
2020-03-17 08:00:00 8.7 0 Calma 4 Sur 0 -- -- 100
2020-03-17 07:00:00 8.6 0 Calma 6 Sur 0 -- -- 100
2020-03-17 06:00:00 8.6 0 Calma 2 Norte 0 -- -- 100
2020-03-17 05:00:00 8.6 0 Calma 2 Nordeste 0 -- -- 100
2020-03-17 04:00:00 8.6 0 Calma 0 Calma 0 -- -- 100
2020-03-17 03:00:00 8.6 0 Calma 2 Sur 0 -- -- 100
2020-03-17 02:00:00 8.6 0 Calma -- -- 0 -- -- 100
2020-03-17 01:00:00 8.6 0 Calma 4 Noroeste 0.2 -- -- 99
2020-03-17 00:00:00 8.5 0 Calma 4 Noroeste 0.2 -- -- 99
2020-03-16 23:00:00 8.5 4 Norte 7 Norte 0.2 -- -- 99
2020-03-16 22:00:00 8.5 3 Norte 6 Norte 0.6 -- -- 99
2020-03-16 21:00:00 8.5 5 Norte 10 Norte 0.4 -- -- 99
2020-03-16 20:00:00 8.4 6 Norte 9 Norte 0.6 -- -- 98
2020-03-16 19:00:00 8.4 4 Norte 11 Noroeste 0.2 -- -- 97
2020-03-16 18:00:00 8.6 8 Norte 12 Norte 0.2 -- -- 97
2020-03-16 17:00:00 8.7 7 Norte 13 Noroeste 0 -- -- 95
2020-03-16 16:00:00 8.7 8 Norte 14 Norte 0 -- -- 94
2020-03-16 15:00:00 8.8 8 Norte 15 Norte 0 -- -- 94
2020-03-16 14:00:00 8.4 5 Norte 10 Noroeste 0.4 -- -- 96
2020-03-16 13:00:00 8.1 6 Norte 10 Norte 1 -- -- 96
2020-03-16 12:00:00 8 3 Norte 6 Noroeste 1.4 -- -- 95
2020-03-16 11:00:00 7.8 0 Calma 4 Sur 0.6 -- -- 95
2020-03-16 10:00:00 7.8 0 Calma 8 Sur 0.6 -- -- 98
2020-03-16 09:00:00 7.2 3 Sur 5 Sur 1 -- -- 98
2020-03-16 08:00:00 7.1 0 Calma 3 Norte 2 -- -- 98
2020-03-16 07:00:00 7.1 0 Calma 4 Sur 2.8 -- -- 97
2020-03-16 06:00:00 7.1 0 Calma 6 Sur 1.2 -- -- 97
2020-03-16 05:00:00 7.2 3 Sur 8 Sur 1.2 -- -- 96
2020-03-16 04:00:00 7.2 6 Sur 9 Sur 0.6 -- -- 96
2020-03-16 03:00:00 7.4 3 Sur 12 Sur 1 -- -- 96
2020-03-16 02:00:00 7.7 3 Sur 9 Sur 1.6 -- -- 97
2020-03-16 01:00:00 8.4 4 Sur 6 Sur 1.8 -- -- 98
2020-03-16 00:00:00 8.6 0 Calma 5 Sudeste 1.6 -- -- 99
2020-03-15 23:00:00 8.9 3 Sur 8 Nordeste 4 -- -- 99
2020-03-15 22:00:00 9.2 4 Sudoeste 19 Norte 13.4 -- -- 98
2020-03-15 21:00:00 9.8 11 Norte 23 Noroeste 5.8 -- -- 98
2020-03-15 20:00:00 10.8 5 Noroeste 18 Norte 2.4 -- -- 95
2020-03-15 19:00:00 11.2 12 Norte 21 Norte 0.6 -- -- 92
2020-03-15 18:00:00 13.4 9 Norte 18 Norte 0.2 -- -- 82
2020-03-15 17:00:00 14.4 10 Norte 41 Norte 0.2 -- -- 75
2020-03-15 16:00:00 17.2 31 Norte 49 Norte 0 -- -- 58
2020-03-15 15:00:00 22.8 11 Sur 30 Sudoeste 0 -- -- 40
2020-03-15 14:00:00 22.6 12 Sur 36 Sudoeste 0 -- -- 37
2020-03-15 13:00:00 21.7 14 Sur 43 Sudoeste 0 -- -- 38
2020-03-15 12:00:00 20.7 19 Sur 41 Sudoeste 0 -- -- 35
2020-03-15 11:00:00 19.7 20 Sudoeste 45 Sur 0 -- -- 33
2020-03-15 10:00:00 18.5 19 Sudoeste 44 Sur 0 -- -- 31
2020-03-15 09:00:00 16.5 20 Sudoeste 48 Sudoeste 0 -- -- 33
2020-03-15 08:00:00 14.5 24 Sudoeste 45 Sudoeste 0 -- -- 37
2020-03-15 07:00:00 13.8 18 Sudoeste 40 Sudoeste 0 -- -- 41
2020-03-15 06:00:00 9.7 6 Sur 18 Sudoeste 0 -- -- 61
2020-03-15 05:00:00 7.1 8 Sur 23 Sudoeste 0 -- -- 82
2020-03-15 04:00:00 2.6 0 Calma 5 Sudoeste 0 -- -- 96
2020-03-15 03:00:00 2.9 0 Calma 5 Sur 0 -- -- 95
2020-03-15 02:00:00 3.4 0 Calma 6 Sur 0 -- -- 94
2020-03-15 01:00:00 3.9 3 Sur 5 Sudoeste 0 -- -- 94
2020-03-15 00:00:00 4.4 2 Sur 6 Sur 0 -- -- 93
2020-03-14 23:00:00 4.8 2 Sur 5 Sur 0 -- -- 92
2020-03-14 22:00:00 5.6 3 Sur 7 Sur 0 -- -- 89
2020-03-14 21:00:00 6.4 4 Sur 10 Sur 0 -- -- 88
2020-03-14 20:00:00 7.8 3 Sur 6 Sur 0 -- -- 83
2020-03-14 19:00:00 9.8 0 Calma 15 Noroeste 0 -- -- 74
2020-03-14 18:00:00 11.1 6 Norte 18 Norte 0 -- -- 66
2020-03-14 17:00:00 11.4 12 Norte 18 Norte 0 -- -- 64
2020-03-14 16:00:00 12 11 Norte 18 Norte 0 -- -- 61
2020-03-14 15:00:00 12.2 11 Norte 20 Norte 0 -- -- 62
2020-03-14 14:00:00 11.8 15 Norte 21 Norte 0 -- -- 62
2020-03-14 13:00:00 11.6 10 Norte 20 Norte 0 -- -- 65
2020-03-14 12:00:00 12 9 Nordeste 17 Norte 0 -- -- 69
2020-03-14 11:00:00 9.8 12 Norte 15 Norte 0 -- -- 72
2020-03-14 10:00:00 8.4 4 Norte 7 Norte 0 -- -- 81
2020-03-14 09:00:00 6.6 3 Sur 4 Sur 0 -- -- 98
2020-03-14 08:00:00 6.2 2 Sur 4 Sudoeste 0 -- -- 99
2020-03-14 07:00:00 6.2 0 Calma 3 Sudeste 0 -- -- 99
2020-03-14 06:00:00 6.2 0 Calma 3 Este 0 -- -- 99
2020-03-14 05:00:00 6.2 2 Sudoeste 3 Sudoeste 0 -- -- 99
2020-03-14 04:00:00 6.1 0 Calma 2 Sudoeste 0 -- -- 99
2020-03-14 03:00:00 5.9 0 Calma 3 Sur 0 -- -- 98
2020-03-14 02:00:00 6 0 Calma 3 Norte 0 -- -- 98
2020-03-14 01:00:00 6.4 0 Calma 6 Norte 0 -- -- 98
2020-03-14 00:00:00 6.8 0 Calma 4 Sur 0 -- -- 97
2020-03-13 23:00:00 7 0 Calma 4 Sur 0 -- -- 97
2020-03-13 22:00:00 7.1 0 Calma 3 Sur 0 -- -- 96
2020-03-13 21:00:00 7.3 0 Calma 3 Sudeste 0 -- -- 95
2020-03-13 20:00:00 7.6 2 Sudeste 4 Sudeste 0 -- -- 93
2020-03-13 19:00:00 8 2 Sur 3 Sudeste 0 -- -- 90
2020-03-13 18:00:00 8.1 0 Calma 4 Nordeste 0 -- -- 87
2020-03-13 17:00:00 7.9 3 Norte 9 Norte 0 -- -- 86
2020-03-13 16:00:00 8 5 Norte 9 Norte 0 -- -- 88
2020-03-13 15:00:00 7.6 4 Norte 9 Norte 0 -- -- 94
2020-03-13 14:00:00 7.4 7 Norte 18 Noroeste 0 -- -- 96
2020-03-13 13:00:00 7.3 9 Norte 20 Norte 0.2 -- -- 98
2020-03-13 12:00:00 7.6 8 Norte 18 Noroeste 0.2 -- -- 98
2020-03-13 11:00:00 7.6 11 Norte 21 Noroeste 0 -- -- 98
2020-03-13 10:00:00 7.4 8 Norte 17 Noroeste 0 -- -- 98
2020-03-13 09:00:00 7.2 8 Norte 20 Noroeste 0 -- -- 98
2020-03-13 08:00:00 7.2 12 Noroeste 21 Norte 0.8 -- -- 98
2020-03-13 07:00:00 7.3 10 Norte 17 Noroeste 1 -- -- 98
2020-03-13 06:00:00 7.3 6 Norte 13 Noroeste 0.2 -- -- 96
2020-03-13 05:00:00 7.5 4 Noroeste 13 Norte 0 -- -- 96
2020-03-13 04:00:00 7.6 6 Noroeste 20 Norte 0.4 -- -- 98
2020-03-13 03:00:00 8.2 13 Norte 24 Norte 1.2 -- -- 99
2020-03-13 02:00:00 8.4 7 Noroeste 13 Noroeste 1 -- -- 99
2020-03-13 01:00:00 8.5 10 Norte 14 Noroeste 1 -- -- 99
2020-03-13 00:00:00 8.7 9 Norte 24 Norte 1.2 -- -- 99
2020-03-12 23:00:00 9.5 14 Norte 24 Norte 1 -- -- 98
2020-03-12 22:00:00 10.1 6 Norte 15 Norte 1 -- -- 99
2020-03-12 21:00:00 10.2 9 Norte 19 Norte 0.8 -- -- 98
2020-03-12 20:00:00 10.7 12 Norte 19 Norte 1.4 -- -- 98
2020-03-12 19:00:00 10.7 6 Norte 19 Norte 1.2 -- -- 98
2020-03-12 18:00:00 11.2 9 Norte 15 Noroeste 0.4 -- -- 97
2020-03-12 17:00:00 11.3 6 Norte 14 Noroeste 0.2 -- -- 97
2020-03-12 16:00:00 11.4 8 Norte 14 Norte 0 -- -- 97
2020-03-12 15:00:00 11.7 8 Norte 15 Norte 0 -- -- 96
2020-03-12 14:00:00 11.8 9 Norte 15 Norte 0 -- -- 94
2020-03-12 13:00:00 12 10 Norte 17 Norte 0 -- -- 93
2020-03-12 12:00:00 11.6 9 Norte 15 Norte 0 -- -- 96
2020-03-12 11:00:00 11.3 8 Norte 14 Norte 0 -- -- 99
2020-03-12 10:00:00 10.7 3 Norte 5 Norte 0.2 -- -- 99
2020-03-12 09:00:00 10.1 0 Calma 3 Sur 0 -- -- 99
2020-03-12 08:00:00 9.7 2 Sudoeste 4 Sudoeste 0 -- -- 99
2020-03-12 07:00:00 9.5 0 Calma 3 Sur 0 -- -- 98
2020-03-12 06:00:00 9.4 0 Calma 2 Sudeste 0 -- -- 98
2020-03-12 05:00:00 9 2 Sur 4 Sur 0 -- -- 97
2020-03-12 04:00:00 9.2 0 Calma 4 Oeste 0 -- -- 96
2020-03-12 03:00:00 9.6 0 Calma 4 Sudoeste 0 -- -- 96
2020-03-12 02:00:00 9.8 0 Calma 4 Sudoeste 0 -- -- 94
2020-03-12 01:00:00 10 0 Calma 5 Sur 0 -- -- 94
2020-03-12 00:00:00 10.1 2 Sur 5 Sur 0 -- -- 93
2020-03-11 23:00:00 10.3 4 Sur 7 Sur 0 -- -- 91
2020-03-11 22:00:00 10.8 4 Sur 6 Sudoeste 0 -- -- 90
2020-03-11 21:00:00 11.6 0 Calma 6 Sudoeste 0 -- -- 87
2020-03-11 20:00:00 12.8 3 Sur 6 Sur 0 -- -- 84
2020-03-11 19:00:00 15.1 3 Sur 10 Norte 0 -- -- 77
2020-03-11 18:00:00 17.4 7 Norte 15 Norte 0 -- -- 67
2020-03-11 17:00:00 17.9 11 Norte 21 Norte 0 -- -- 65
2020-03-11 16:00:00 18.3 13 Norte 23 Norte 0 -- -- 65
2020-03-11 15:00:00 18 15 Norte 23 Norte 0 -- -- 65
2020-03-11 14:00:00 17.1 15 Norte 26 Norte 0 -- -- 65
2020-03-11 13:00:00 16.3 13 Norte 22 Norte 0 -- -- 68
2020-03-11 12:00:00 14.6 12 Norte 18 Norte 0 -- -- 72
2020-03-11 11:00:00 12.9 9 Norte 13 Norte 0 -- -- 75
2020-03-11 10:00:00 10.6 2 Sudeste 6 Sur 0 -- -- 92
2020-03-11 09:00:00 5 0 Calma 5 Sur 0 -- -- 99
2020-03-11 08:00:00 4.8 0 Calma 5 Sur 0 -- -- 98
2020-03-11 07:00:00 4.6 0 Calma 5 Sur 0 -- -- 98
2020-03-11 06:00:00 4.6 0 Calma 5 Sur 0 -- -- 97
2020-03-11 05:00:00 5.2 2 Sur 4 Sudoeste 0 -- -- 97
2020-03-11 04:00:00 5.3 0 Calma 2 Sudoeste 0 -- -- 96
2020-03-11 03:00:00 5.7 2 Sur 6 Sur 0 -- -- 96
2020-03-11 02:00:00 5.3 0 Calma 5 Sur 0 -- -- 95
2020-03-11 01:00:00 5.7 0 Calma 6 Sur 0 -- -- 93
2020-03-11 00:00:00 6.1 0 Calma 6 Sudoeste 0 -- -- 92
2020-03-10 23:00:00 6.7 3 Sur 5 Sur 0 -- -- 90
2020-03-10 22:00:00 7.7 2 Sudoeste 4 Sudoeste 0 -- -- 88
2020-03-10 21:00:00 9.1 0 Calma 6 Oeste 0 -- -- 87
2020-03-10 20:00:00 10.5 2 Sur 11 Noroeste 0 -- -- 85
2020-03-10 19:00:00 12.5 6 Norte 15 Norte 0 -- -- 79
2020-03-10 18:00:00 13.8 9 Norte 22 Norte 0 -- -- 74
2020-03-10 17:00:00 15.3 15 Norte 24 Norte 0 -- -- 67
2020-03-10 16:00:00 15.9 13 Norte 21 Norte 0 -- -- 63
2020-03-10 15:00:00 16.2 14 Norte 26 Nordeste 0 -- -- 62
2020-03-10 14:00:00 15.9 17 Norte 26 Norte 0 -- -- 56
2020-03-10 13:00:00 15.5 13 Norte 17 Norte 0 -- -- 56
2020-03-10 12:00:00 13.5 10 Norte 15 Norte 0 -- -- 70
2020-03-10 11:00:00 12.9 0 Calma 5 Nordeste 0 -- -- 77
2020-03-10 10:00:00 9.8 0 Calma 4 Sudoeste 0 -- -- 97
2020-03-10 09:00:00 7 0 Calma 6 Sur 0 -- -- 99
2020-03-10 08:00:00 5.8 2 Sudoeste 5 Sudoeste 0 -- -- 98
2020-03-10 07:00:00 5.7 2 Sur 5 Sudoeste 0 -- -- 98
2020-03-10 06:00:00 5 0 Calma 5 Oeste 0 -- -- 98
2020-03-10 05:00:00 4.7 0 Calma 9 Sur 0 -- -- 97
2020-03-10 04:00:00 4.8 2 Sur 6 Sudoeste 0 -- -- 97
2020-03-10 03:00:00 5.1 3 Sur 6 Sur 0 -- -- 97
2020-03-10 02:00:00 5.5 0 Calma 5 Sur 0 -- -- 97
2020-03-10 01:00:00 5.9 0 Calma 5 Sudoeste 0 -- -- 96
2020-03-10 00:00:00 6.3 2 Sur 5 Sur 0.2 -- -- 96
2020-03-09 23:00:00 6.8 0 Calma 5 Sudoeste 0 -- -- 95
2020-03-09 22:00:00 6.8 0 Calma 8 Sur 0 -- -- 94
2020-03-09 21:00:00 7.6 0 Calma 16 Noroeste 0 -- -- 90
2020-03-09 20:00:00 8.5 6 Norte 11 Norte 0 -- -- 79
2020-03-09 19:00:00 8.9 9 Norte 18 Nordeste 0 -- -- 75
2020-03-09 18:00:00 9 6 Nordeste 24 Norte 0 -- -- 74
2020-03-09 17:00:00 9.9 10 Norte 33 Noroeste 0 -- -- 69
2020-03-09 16:00:00 9.8 8 Norte 26 Norte 0.2 -- -- 72
2020-03-09 15:00:00 9.8 12 Norte 31 Noroeste 0.2 -- -- 76
2020-03-09 14:00:00 10.1 13 Norte 37 Noroeste 0 -- -- 71
2020-03-09 13:00:00 9.4 9 Norte 30 Noroeste 1 -- -- 84
2020-03-09 12:00:00 8.6 7 Norte 36 Noroeste 1.6 -- -- 89
2020-03-09 11:00:00 8.1 5 Norte 29 Noroeste 1.2 -- -- 87
2020-03-09 10:00:00 7.4 14 Norte 24 Norte 2 -- -- 87
2020-03-09 09:00:00 7.6 2 Noroeste 24 Norte 2.6 -- -- 87
2020-03-09 08:00:00 8 8 Norte 27 Noroeste 0.4 -- -- 81
2020-03-09 07:00:00 7.3 9 Norte 22 Nordeste 1.4 -- -- 86
2020-03-09 06:00:00 7.1 5 Sur 16 Sur 1.2 -- -- 91
2020-03-09 05:00:00 7.3 5 Noroeste 13 Noroeste 1.6 -- -- 90
2020-03-09 04:00:00 7.6 4 Nordeste 26 Norte 1.4 -- -- 89
2020-03-09 03:00:00 7.3 8 Norte 27 Noroeste 3.4 -- -- 92
2020-03-09 02:00:00 8.5 7 Sur 23 Sudoeste 1.8 -- -- 87
2020-03-09 01:00:00 8.4 4 Sudeste 20 Sur 1.4 -- -- 90
2020-03-09 00:00:00 8.7 5 Sur 23 Sudoeste 0.6 -- -- 88
2020-03-08 23:00:00 9.6 9 Sur 20 Sur 0.2 -- -- 79
2020-03-08 22:00:00 10.1 5 Sur 23 Sudoeste 0.2 -- -- 82
2020-03-08 21:00:00 10.4 11 Sur 20 Sur 0 -- -- 78
2020-03-08 20:00:00 10.3 4 Sur 26 Norte 0.2 -- -- 87
2020-03-08 19:00:00 11.8 5 Norte 21 Norte 0 -- -- 82
2020-03-08 18:00:00 12.3 13 Norte 22 Norte 0 -- -- 79
2020-03-08 17:00:00 14.2 3 Norte 13 Norte 0 -- -- 70
2020-03-08 16:00:00 14.9 4 Sudoeste 13 Oeste 0 -- -- 61
2020-03-08 15:00:00 15.3 5 Nordeste 17 Norte 0 -- -- 57
2020-03-08 14:00:00 15.7 9 Norte 19 Norte 0 -- -- 58
2020-03-08 13:00:00 16.2 3 Este 14 Sudoeste 0 -- -- 55
2020-03-08 12:00:00 14.7 4 Norte 15 Oeste 0 -- -- 67
2020-03-08 11:00:00 10.9 0 Calma 10 Norte 0 -- -- 89
2020-03-08 10:00:00 8.6 2 Norte 9 Norte 0 -- -- 96
2020-03-08 09:00:00 5.1 4 Norte 7 Norte 0 -- -- 99
2020-03-08 08:00:00 3.7 0 Calma 7 Oeste 0 -- -- 99
2020-03-08 07:00:00 3.4 0 Calma 6 Sudoeste 0 -- -- 99
2020-03-08 06:00:00 3.4 0 Calma 6 Oeste 0 -- -- 99
2020-03-08 05:00:00 3.4 0 Calma 6 Sudoeste 0 -- -- 98
2020-03-08 04:00:00 3.6 0 Calma 5 Sudoeste 0 -- -- 97
2020-03-08 03:00:00 3.9 2 Sur 6 Sudoeste 0 -- -- 98
2020-03-08 02:00:00 4.4 2 Sur 4 Sudoeste 0 -- -- 98
2020-03-08 01:00:00 4.7 3 Sur 11 Sur 0 -- -- 98
2020-03-08 00:00:00 5.2 2 Sur 8 Sur 0 -- -- 98
2020-03-07 23:00:00 6.4 3 Sur 6 Sur 0 -- -- 97
2020-03-07 22:00:00 7.8 3 Sur 4 Oeste 0 -- -- 98
2020-03-07 21:00:00 8.2 0 Calma 6 Sudoeste 0 -- -- 98
2020-03-07 20:00:00 8.4 0 Calma 3 Sur 1 -- -- 98
2020-03-07 19:00:00 8.5 0 Calma 4 Sur 0.2 -- -- 97
2020-03-07 18:00:00 8.6 0 Calma 9 Noroeste 0.8 -- -- 97
2020-03-07 17:00:00 8.7 0 Calma 12 Noroeste 0 -- -- 97
2020-03-07 16:00:00 8.4 6 Norte 12 Norte 0.4 -- -- 97
2020-03-07 15:00:00 8.3 8 Norte 14 Noroeste 0.8 -- -- 96
2020-03-07 14:00:00 8.1 10 Norte 18 Noroeste 0.2 -- -- 95
2020-03-07 13:00:00 8.1 8 Norte 14 Noroeste 0.4 -- -- 95
2020-03-07 12:00:00 7.3 5 Norte 14 Norte 0.4 -- -- 96
2020-03-07 11:00:00 6.7 11 Norte 18 Noroeste 0.8 -- -- 97
2020-03-07 10:00:00 6.4 12 Noroeste 21 Noroeste 1 -- -- 97
2020-03-07 09:00:00 6 7 Norte 18 Noroeste 0.6 -- -- 97
2020-03-07 08:00:00 5.7 7 Norte 14 Norte 1.6 -- -- 97
2020-03-07 07:00:00 5.2 6 Noroeste 13 Noroeste 1 -- -- 98
2020-03-07 06:00:00 5 4 Norte 8 Norte 1.4 -- -- 96
2020-03-07 05:00:00 5 4 Sudoeste 13 Este 0.6 -- -- 95
2020-03-07 04:00:00 5 5 Norte 18 Norte 2.6 -- -- 95
2020-03-07 03:00:00 4.4 4 Sur 8 Sudoeste 1 -- -- 96
2020-03-07 02:00:00 4.5 3 Sudoeste 11 Sudeste 1.6 -- -- 95
2020-03-07 01:00:00 4.9 3 Sudoeste 23 Norte 1.6 -- -- 92
2020-03-07 00:00:00 5.2 14 Norte 32 Noroeste 2 -- -- 90
2020-03-06 23:00:00 5.1 6 Noroeste 32 Nordeste 1 -- -- 91
2020-03-06 22:00:00 4.5 18 Norte 30 Noroeste 4.2 -- -- 95
2020-03-06 21:00:00 4.1 8 Norte 40 Norte 4.2 -- -- 96
2020-03-06 20:00:00 6.2 4 Norte 42 Noroeste 0.8 -- -- 81
2020-03-06 19:00:00 5.6 13 Norte 49 Noroeste 2.2 -- -- 88
2020-03-06 18:00:00 6.3 19 Norte 60 Noroeste 0.8 -- -- 76
2020-03-06 17:00:00 6.1 10 Norte 37 Noroeste 0.2 -- -- 85
2020-03-06 16:00:00 4 13 Este 40 Norte 4.8 -- -- 98
2020-03-06 15:00:00 5.6 8 Nordeste 23 Sudeste 2 -- -- 85
2020-03-06 14:00:00 5.2 12 Norte 38 Nordeste 3 -- -- 84
2020-03-06 13:00:00 6.7 12 Sur 42 Noroeste 0.6 -- -- 73
2020-03-06 12:00:00 4.4 8 Sudeste 22 Sur 4.2 -- -- 91
2020-03-06 11:00:00 4.2 8 Sur 21 Sudoeste 3.4 -- -- 90
2020-03-06 10:00:00 5.7 4 Sur 30 Sur 2.4 -- -- 93
2020-03-06 09:00:00 4.8 10 Sur 31 Sur 3 -- -- 85
2020-03-06 08:00:00 5.5 6 Sur 31 Noroeste 2.6 -- -- 84
2020-03-06 07:00:00 6.1 8 Sur 28 Sur 1.8 -- -- 82
2020-03-06 06:00:00 7 11 Sudoeste 32 Sudeste 0.4 -- -- 76
2020-03-06 05:00:00 7.6 12 Sur 35 Sur 0 -- -- 71
2020-03-06 04:00:00 6.4 12 Sur 23 Sur 0 -- -- 78
2020-03-06 03:00:00 6.3 8 Sur 15 Sur 0 -- -- 79
2020-03-06 02:00:00 6.7 6 Sur 24 Sudoeste 0 -- -- 80
2020-03-06 01:00:00 7 6 Sur 15 Sur 0 -- -- 84
2020-03-06 00:00:00 6.5 8 Sur 23 Este 1.2 -- -- 86
2020-03-05 23:00:00 6.3 8 Sudeste 25 Sur 2.6 -- -- 85
2020-03-05 22:00:00 7.2 5 Nordeste 33 Sur 0.6 -- -- 85
2020-03-05 21:00:00 7.1 7 Sur 21 Sudoeste 1.8 -- -- 86
2020-03-05 20:00:00 7.4 8 Norte 28 Sudeste 2 -- -- 83
2020-03-05 19:00:00 8.9 10 Nordeste 40 Sur 0.8 -- -- 74
2020-03-05 18:00:00 9 16 Sur 41 Sur 0.8 -- -- 80
2020-03-05 17:00:00 9.6 12 Sudeste 66 Sudoeste 1.6 -- -- 78
2020-03-05 16:00:00 10.6 11 Sur 58 Sur 0.2 -- -- 73
2020-03-05 15:00:00 10.9 11 Sudeste 43 Sur 0.8 -- -- 77
2020-03-05 14:00:00 11.8 5 Sudeste 18 Este 0 -- -- 70
2020-03-05 13:00:00 10.2 6 Sur 21 Sudoeste 2.8 -- -- 84
2020-03-05 12:00:00 9.6 5 Sur 13 Sur 6 -- -- 92
2020-03-05 11:00:00 10.4 3 Norte 24 Sudoeste 5.6 -- -- 91
2020-03-05 10:00:00 12.5 9 Sur 27 Sudoeste 2.2 -- -- 81
2020-03-05 09:00:00 13.8 17 Sur 41 Sudoeste 0.4 -- -- 78
2020-03-05 08:00:00 14.6 25 Sudoeste 46 Sudoeste 0 -- -- 70
2020-03-05 07:00:00 15.1 17 Sudoeste 39 Sudoeste 0 -- -- 65
2020-03-05 06:00:00 15.5 18 Sudoeste 42 Sudoeste 0 -- -- 61
2020-03-05 05:00:00 15.3 17 Sudoeste 47 Sur 0.2 -- -- 64
2020-03-05 04:00:00 15 16 Sur 42 Sudoeste 0 -- -- 67
2020-03-05 03:00:00 14.8 14 Sur 33 Sur 0 -- -- 68
2020-03-05 02:00:00 14.6 6 Sur 25 Sur 0 -- -- 71
2020-03-05 01:00:00 14.7 11 Sur 30 Sudoeste 0 -- -- 70
2020-03-05 00:00:00 13.8 6 Sur 20 Sudeste 0 -- -- 77